Time;durP1;ratioP1;P1;durP2;ratioP2;P2;SDS_P1;SDS_P2;PMS_P1;PMS_P2;Temp;Humidity;BMP_temperature;BMP_pressure;BME280_temperature;BME280_humidity;BME280_pressure;Samples;Min_cycle;Max_cycle;Signal;HPM_P1;HPM_P2
2021/07/14 00:00:13;;;;;;;11.27;7.90;;;;;;;22.23;57.63;101318.81;5059105;28;20429;-87
2021/07/14 00:02:39;;;;;;;9.88;7.25;;;;;;;22.23;57.96;101321.44;5092488;28;20485;-86
2021/07/14 00:05:10;;;;;;;10.52;7.53;;;;;;;22.23;58.11;101319.66;5092711;28;20046;-86
2021/07/14 00:07:36;;;;;;;10.05;7.28;;;;;;;22.22;58.18;101320.59;5075849;28;20081;-87
2021/07/14 00:10:16;;;;;;;10.05;7.60;;;;;;;22.24;58.00;101333.66;5092473;28;20031;-86
2021/07/14 00:12:59;;;;;;;10.63;7.72;;;;;;;22.23;58.00;101329.31;5092629;28;20085;-87
2021/07/14 00:23:24;;;;;;;11.52;7.13;;;;;;;22.24;58.13;101320.56;5092862;28;20115;-87
2021/07/14 00:25:49;;;;;;;12.88;8.13;;;;;;;22.22;58.10;101315.34;5058711;28;20032;-87
2021/07/14 00:28:16;;;;;;;10.05;7.07;;;;;;;22.23;57.92;101318.81;5092155;28;20470;-85
2021/07/14 00:30:48;;;;;;;11.40;7.97;;;;;;;22.20;58.35;101317.09;5075574;28;20043;-87
2021/07/14 00:33:14;;;;;;;12.02;7.60;;;;;;;22.21;58.01;101317.94;5093061;28;20026;-87
2021/07/14 00:35:39;;;;;;;12.40;7.95;;;;;;;22.23;58.04;101324.06;5092604;28;20107;-87
2021/07/14 00:38:05;;;;;;;11.82;7.70;;;;;;;22.21;58.21;101328.44;5079475;28;20078;-87
2021/07/14 00:40:30;;;;;;;10.88;7.60;;;;;;;22.21;58.12;101333.69;5079859;28;20639;-84
2021/07/14 00:42:55;;;;;;;10.43;7.80;;;;;;;22.17;58.15;101339.00;5096446;28;20035;-86
2021/07/14 00:45:21;;;;;;;10.73;8.23;;;;;;;22.18;58.32;101334.59;5062647;28;20466;-84
2021/07/14 00:47:49;;;;;;;11.85;7.28;;;;;;;22.21;58.17;101349.41;5064151;28;20108;-85
2021/07/14 00:50:15;;;;;;;11.45;8.32;;;;;;;22.20;58.20;101359.03;5066449;28;20024;-85
2021/07/14 00:52:41;;;;;;;12.43;7.50;;;;;;;22.18;58.23;101352.97;5098015;28;20027;-85
2021/07/14 00:55:07;;;;;;;11.25;7.45;;;;;;;22.19;58.32;101346.84;5096665;28;20028;-83
2021/07/14 00:57:33;;;;;;;11.05;7.80;;;;;;;22.18;58.23;101342.47;5062966;28;20032;-83
2021/07/14 00:59:58;;;;;;;10.20;7.95;;;;;;;22.16;58.31;101339.03;5096157;28;20092;-87
2021/07/14 01:02:25;;;;;;;13.23;8.23;;;;;;;22.17;58.19;101335.53;5079105;28;20389;-88
2021/07/14 01:04:58;;;;;;;11.95;7.82;;;;;;;22.18;58.23;101338.09;5079286;28;20550;-88
2021/07/14 01:07:27;;;;;;;12.45;7.80;;;;;;;22.18;58.48;101339.84;5096013;28;20496;-88
2021/07/14 01:10:05;;;;;;;11.52;7.95;;;;;;;22.17;58.47;101339.00;5079244;28;20025;-85
2021/07/14 01:13:00;;;;;;;10.68;7.53;;;;;;;22.17;58.18;101338.13;5095920;28;20077;-87
2021/07/14 01:15:31;;;;;;;10.52;7.80;;;;;;;22.19;58.31;101334.59;5095952;28;20024;-85
2021/07/14 01:18:02;;;;;;;11.80;7.80;;;;;;;22.19;58.22;101329.34;5095652;28;20024;-87
2021/07/14 01:21:17;;;;;;;10.60;7.78;;;;;;;22.23;58.40;101335.41;5095708;28;20125;-89
2021/07/14 01:24:10;;;;;;;10.30;7.90;;;;;;;22.21;58.31;101324.06;5088099;28;20036;-87
2021/07/14 01:26:54;;;;;;;11.73;7.90;;;;;;;22.16;58.16;101325.91;5095502;28;20485;-88
2021/07/14 01:29:21;;;;;;;12.88;8.30;;;;;;;22.15;58.25;101329.44;5095522;28;20040;-88
2021/07/14 01:31:49;;;;;;;8.05;7.22;;;;;;;22.12;58.79;101332.09;5095671;28;20016;-90
2021/07/14 01:34:16;;;;;;;10.00;7.22;;;;;;;22.13;58.35;101332.09;5096289;28;20043;-88
2021/07/14 01:36:45;;;;;;;9.73;7.22;;;;;;;22.13;58.32;101329.47;5080129;28;20028;-90
2021/07/14 01:39:13;;;;;;;8.55;7.07;;;;;;;22.14;58.26;101333.81;5095937;28;20508;-88
2021/07/14 01:41:43;;;;;;;11.57;7.20;;;;;;;22.14;58.04;101330.31;5095717;28;20024;-88
2021/07/14 01:44:09;;;;;;;9.55;7.00;;;;;;;22.11;58.33;101336.50;5097480;28;20030;-88
2021/07/14 01:46:37;;;;;;;9.48;7.38;;;;;;;22.12;58.04;101325.13;5081393;28;20028;-88
2021/07/14 01:49:07;;;;;;;9.48;6.82;;;;;;;22.12;57.93;101332.09;5079127;28;20118;-88
2021/07/14 01:51:37;;;;;;;8.55;7.10;;;;;;;22.11;58.10;101333.03;5097442;28;20031;-88
2021/07/14 01:54:04;;;;;;;10.30;6.70;;;;;;;22.11;57.95;101333.88;5100909;28;20351;-91
2021/07/14 01:56:33;;;;;;;7.40;6.30;;;;;;;22.12;58.00;101325.13;5080238;28;20035;-90
2021/07/14 01:59:00;;;;;;;7.72;6.90;;;;;;;22.17;57.96;101327.66;5097125;28;20028;-90
2021/07/14 02:01:27;;;;;;;6.97;5.90;;;;;;;22.19;57.84;101328.50;5078637;28;20031;-90
2021/07/14 02:04:30;;;;;;;8.02;6.20;;;;;;;22.21;58.09;101334.56;5095416;28;20030;-89
2021/07/14 02:06:48;;;;;;;6.97;6.13;;;;;;;22.18;57.78;101340.72;5095279;28;20032;-88
2021/07/14 02:09:15;;;;;;;8.98;6.85;;;;;;;22.18;58.01;101343.31;5095053;28;20074;-88
2021/07/14 02:11:43;;;;;;;8.35;6.82;;;;;;;22.14;57.88;101335.56;5077986;28;20115;-88
2021/07/14 02:14:11;;;;;;;8.35;6.63;;;;;;;22.13;58.07;101341.72;5078253;28;20495;-86
2021/07/14 02:16:38;;;;;;;7.70;6.30;;;;;;;22.15;58.02;101334.69;5078111;28;20420;-89
2021/07/14 02:19:06;;;;;;;6.78;6.00;;;;;;;22.16;57.68;101333.78;5094571;28;20020;-89
2021/07/14 02:21:33;;;;;;;7.93;6.25;;;;;;;22.17;58.03;101330.28;5094591;28;20051;-89
2021/07/14 02:23:59;;;;;;;7.18;5.63;;;;;;;22.14;57.96;101325.94;5094553;28;20455;-89
2021/07/14 02:26:25;;;;;;;7.55;6.25;;;;;;;22.18;58.07;101330.22;5060941;28;20036;-88
2021/07/14 02:28:50;;;;;;;7.05;6.18;;;;;;;22.18;57.76;101324.13;5077904;28;20111;-88
2021/07/14 02:31:16;;;;;;;8.90;6.63;;;;;;;22.18;57.79;101311.88;5060798;28;20123;-88
2021/07/14 02:33:41;;;;;;;9.32;6.15;;;;;;;22.17;58.05;101310.16;5094469;28;20202;-88
2021/07/14 02:36:11;;;;;;;8.32;6.85;;;;;;;22.15;57.84;101304.09;5094463;28;20082;-88
2021/07/14 02:38:38;;;;;;;8.82;6.80;;;;;;;22.15;58.14;101298.00;5094256;28;20169;-90
2021/07/14 02:41:11;;;;;;;9.68;7.38;;;;;;;22.12;57.88;101284.94;5094047;28;20446;-90
2021/07/14 02:43:41;;;;;;;10.15;7.45;;;;;;;22.08;57.86;101291.13;5094257;28;20051;-91
2021/07/14 02:46:11;;;;;;;7.88;6.80;;;;;;;22.08;57.86;101283.28;5094185;28;20024;-89
2021/07/14 02:48:37;;;;;;;6.97;6.28;;;;;;;22.10;57.91;101294.59;5095447;28;20055;-90
2021/07/14 02:51:04;;;;;;;8.55;7.05;;;;;;;22.09;57.97;101282.38;5077371;28;20127;-90
2021/07/14 02:53:41;;;;;;;7.97;6.78;;;;;;;22.10;57.89;101291.97;5077040;28;20055;-89
2021/07/14 02:56:15;;;;;;;8.95;6.57;;;;;;;22.09;57.82;101296.34;5094056;28;20035;-89
2021/07/14 02:58:44;;;;;;;8.10;6.90;;;;;;;22.08;57.96;101286.78;5094087;28;20031;-90
2021/07/14 03:01:12;;;;;;;8.32;6.63;;;;;;;22.07;57.73;101290.28;5092516;28;20046;-87
2021/07/14 03:03:38;;;;;;;7.97;7.03;;;;;;;22.08;57.76;101283.28;5093641;28;20038;-89
2021/07/14 03:06:05;;;;;;;7.45;6.75;;;;;;;22.07;57.84;101278.94;5076902;28;20028;-91
2021/07/14 03:08:32;;;;;;;7.65;6.68;;;;;;;22.09;57.83;101278.00;5060443;28;20056;-91
2021/07/14 03:11:00;;;;;;;9.38;6.65;;;;;;;22.07;57.88;101277.16;5076797;28;20035;-89
2021/07/14 03:13:28;;;;;;;8.02;6.93;;;;;;;22.08;57.86;101278.03;5093622;28;20042;-89
2021/07/14 03:15:55;;;;;;;7.82;6.80;;;;;;;22.07;57.86;101277.16;5094721;28;20384;-90
2021/07/14 03:18:22;;;;;;;7.38;6.47;;;;;;;22.07;58.11;101271.06;5076722;28;20038;-90
2021/07/14 03:20:52;;;;;;;9.82;7.25;;;;;;;22.05;58.00;101278.97;5093409;28;20035;-90
2021/07/14 03:23:18;;;;;;;8.05;7.10;;;;;;;22.07;58.00;101282.41;5093092;28;20446;-90
2021/07/14 03:25:45;;;;;;;7.68;6.55;;;;;;;22.09;58.21;101277.16;5093314;28;20047;-90
2021/07/14 03:28:10;;;;;;;9.63;7.18;;;;;;;22.10;57.79;101279.75;5076586;28;20428;-88
2021/07/14 03:30:37;;;;;;;8.98;6.68;;;;;;;22.11;57.98;101283.22;5076333;28;20081;-89
2021/07/14 03:33:03;;;;;;;10.73;7.60;;;;;;;22.11;58.02;101284.06;5093100;28;20078;-90
2021/07/14 03:35:28;;;;;;;9.48;6.75;;;;;;;22.10;57.78;101282.38;5093173;28;20054;-89
2021/07/14 03:37:57;;;;;;;9.48;6.95;;;;;;;22.10;58.07;101277.13;5076246;28;20478;-89
2021/07/14 03:40:23;;;;;;;9.52;7.18;;;;;;;22.11;58.12;101277.97;5092934;28;20035;-89
2021/07/14 03:42:50;;;;;;;9.55;7.32;;;;;;;22.12;58.12;101274.44;5092947;28;20034;-89
2021/07/14 03:45:16;;;;;;;10.52;7.75;;;;;;;22.09;58.08;101270.13;5094115;28;20027;-91
2021/07/14 03:47:43;;;;;;;8.30;6.93;;;;;;;22.10;58.19;101274.50;5059478;28;20024;-89
2021/07/14 03:50:09;;;;;;;9.07;7.38;;;;;;;22.09;57.81;101275.38;5076240;28;20425;-90
2021/07/14 03:52:36;;;;;;;7.78;6.95;;;;;;;22.11;57.95;101280.59;5076145;28;20482;-88
2021/07/14 03:55:04;;;;;;;10.30;7.35;;;;;;;22.07;58.10;101279.78;5093136;28;20024;-90
2021/07/14 03:57:29;;;;;;;10.68;7.47;;;;;;;22.08;58.17;101280.66;5092734;28;20166;-89
2021/07/14 03:59:56;;;;;;;8.52;6.82;;;;;;;22.08;58.00;101280.66;5092606;28;20537;-89
2021/07/14 04:02:22;;;;;;;9.80;7.35;;;;;;;22.08;58.26;101280.66;5092829;28;20085;-89
2021/07/14 04:04:49;;;;;;;9.32;7.15;;;;;;;22.07;58.04;101282.41;5075914;28;20028;-89
2021/07/14 04:07:28;;;;;;;9.27;6.85;;;;;;;22.07;58.03;101271.94;5075929;28;20032;-90
2021/07/14 04:09:53;;;;;;;9.32;7.60;;;;;;;22.06;58.18;101272.84;5092770;28;20386;-89
2021/07/14 04:12:19;;;;;;;10.88;8.07;;;;;;;22.07;58.08;101273.69;5093620;28;20028;-88
2021/07/14 04:14:46;;;;;;;11.82;8.13;;;;;;;22.06;58.20;101277.19;5075794;28;20031;-89
2021/07/14 04:17:12;;;;;;;9.18;7.40;;;;;;;22.08;58.08;101255.31;5094471;28;20035;-89
2021/07/14 04:19:40;;;;;;;9.32;7.20;;;;;;;22.10;58.11;101261.41;5094890;28;20058;-89
2021/07/14 04:22:08;;;;;;;9.45;7.72;;;;;;;22.09;58.14;101257.03;5095382;28;20432;-90
2021/07/14 04:24:34;;;;;;;10.77;7.85;;;;;;;22.07;58.06;101252.72;5092558;28;20056;-90
2021/07/14 04:27:00;;;;;;;8.50;7.60;;;;;;;22.12;58.09;101257.00;5092455;28;20105;-87
2021/07/14 04:29:25;;;;;;;12.20;7.60;;;;;;;22.19;57.75;101253.31;5075918;28;20044;-88
2021/07/14 04:31:51;;;;;;;8.77;7.50;;;;;;;22.25;57.82;101256.72;5092526;28;20058;-86
2021/07/14 04:34:16;;;;;;;8.10;7.30;;;;;;;22.27;57.57;101252.31;5058729;28;20620;-88
2021/07/14 04:36:42;;;;;;;9.68;6.75;;;;;;;22.30;57.74;101266.22;5059035;28;20549;-88
2021/07/14 04:39:09;;;;;;;8.65;6.78;;;;;;;22.32;57.73;101266.16;5075357;28;20077;-88
2021/07/14 04:41:34;;;;;;;7.18;6.38;;;;;;;22.32;57.62;101255.69;5075365;28;20028;-87
2021/07/14 04:44:02;;;;;;;7.75;6.80;;;;;;;22.33;57.54;101267.91;5092129;28;20032;-88
2021/07/14 04:46:28;;;;;;;7.38;6.38;;;;;;;22.34;57.61;101261.75;5075561;28;20032;-87
2021/07/14 04:48:54;;;;;;;7.40;6.65;;;;;;;22.35;57.50;101260.88;5092066;28;20036;-88
2021/07/14 04:51:20;;;;;;;7.82;7.03;;;;;;;22.36;57.48;101257.34;5075332;28;20082;-88
2021/07/14 04:53:46;;;;;;;7.00;6.30;;;;;;;22.37;57.34;101269.56;5075285;28;20031;-88
2021/07/14 04:56:13;;;;;;;7.00;6.30;;;;;;;22.36;57.35;101254.72;5092080;28;20031;-88
2021/07/14 04:58:38;;;;;;;8.80;7.88;;;;;;;22.29;57.43;101269.72;5058844;28;20023;-88
2021/07/14 05:01:04;;;;;;;8.60;7.70;;;;;;;22.28;57.43;101267.16;5058576;28;20138;-90
2021/07/14 05:03:29;;;;;;;10.73;8.52;;;;;;;22.26;57.39;101271.56;5075484;28;20447;-89
2021/07/14 05:05:55;;;;;;;10.07;8.00;;;;;;;22.22;57.48;101264.66;5058547;28;20028;-90
2021/07/14 05:08:20;;;;;;;10.65;8.65;;;;;;;22.26;57.65;101268.97;5058484;28;20028;-88
2021/07/14 05:10:48;;;;;;;13.88;9.48;;;;;;;22.33;57.23;101274.00;5058526;28;20414;-89
2021/07/14 05:13:15;;;;;;;18.80;11.18;;;;;;;22.32;57.46;101277.53;5075691;28;20093;-85
2021/07/14 05:15:43;;;;;;;16.45;11.07;;;;;;;22.33;57.69;101283.66;5075830;28;20099;-92
2021/07/14 05:18:09;;;;;;;18.55;12.27;;;;;;;22.30;57.60;101279.34;5059696;28;20031;-90
2021/07/14 05:20:34;;;;;;;18.60;12.00;;;;;;;22.22;57.82;101278.63;5074796;28;20020;-87
2021/07/14 05:23:00;;;;;;;18.75;11.80;;;;;;;22.18;57.67;101282.19;5058870;28;20051;-87
2021/07/14 05:25:25;;;;;;;18.20;12.07;;;;;;;22.19;58.11;101283.94;5078865;28;20402;-91
2021/07/14 05:27:50;;;;;;;18.40;12.68;;;;;;;22.17;57.86;101298.81;5078982;28;20028;-90
2021/07/14 05:30:17;;;;;;;17.45;12.63;;;;;;;22.12;57.88;101300.66;5078925;28;20407;-89
2021/07/14 05:32:44;;;;;;;17.27;12.55;;;;;;;22.10;58.02;101299.81;5095469;28;20028;-91
2021/07/14 05:35:09;;;;;;;17.83;12.18;;;;;;;22.13;57.68;101292.78;5078736;28;20069;-90
2021/07/14 05:37:35;;;;;;;18.90;13.40;;;;;;;22.11;57.83;101307.66;5078486;28;20020;-89
2021/07/14 05:40:00;;;;;;;14.40;11.57;;;;;;;22.11;57.65;101312.91;5095395;28;20035;-90
2021/07/14 05:42:26;;;;;;;17.50;12.18;;;;;;;22.09;57.62;101322.56;5061964;28;20480;-89
2021/07/14 05:44:51;;;;;;;14.93;11.73;;;;;;;22.05;57.58;101322.66;5078448;28;20024;-91
2021/07/14 05:47:17;;;;;;;17.15;11.85;;;;;;;22.08;57.78;101319.97;5078318;28;20055;-88
2021/07/14 05:49:43;;;;;;;17.30;12.05;;;;;;;22.10;57.50;101310.31;5078502;28;20032;-90
2021/07/14 05:52:09;;;;;;;14.20;11.40;;;;;;;22.12;57.70;101301.53;5078978;28;20119;-90
2021/07/14 05:54:35;;;;;;;14.68;11.02;;;;;;;22.13;57.44;101302.41;5079161;28;20081;-90
2021/07/14 05:57:00;;;;;;;15.00;11.38;;;;;;;22.12;57.65;101303.28;5078447;28;20432;-89
2021/07/14 05:59:25;;;;;;;12.85;10.98;;;;;;;22.15;57.54;101316.34;5095266;28;20068;-90
2021/07/14 06:01:51;;;;;;;16.60;10.95;;;;;;;22.13;57.37;101324.22;5078327;28;20027;-88
2021/07/14 06:04:16;;;;;;;14.27;11.25;;;;;;;22.11;57.50;101330.41;5078459;28;20028;-88
2021/07/14 06:06:43;;;;;;;14.60;11.00;;;;;;;22.16;57.54;101318.91;5078011;28;20062;-88
2021/07/14 06:09:08;;;;;;;13.57;10.15;;;;;;;22.25;57.09;101320.50;5078444;28;20032;-87
2021/07/14 06:11:34;;;;;;;12.82;10.07;;;;;;;22.27;56.98;101316.09;5077718;28;20089;-88
2021/07/14 06:13:59;;;;;;;12.77;10.15;;;;;;;22.30;57.16;101320.44;5061176;28;20057;-88
2021/07/14 06:16:25;;;;;;;12.52;9.63;;;;;;;22.32;57.23;101322.13;5061049;28;20424;-83
2021/07/14 06:18:50;;;;;;;13.48;10.00;;;;;;;22.31;57.04;101336.09;5060999;28;20077;-93
2021/07/14 06:21:15;;;;;;;12.43;9.82;;;;;;;22.33;57.15;101338.72;5078225;28;20028;-91
2021/07/14 06:23:41;;;;;;;12.40;9.88;;;;;;;22.34;56.93;101322.06;5061368;28;20135;-89
2021/07/14 06:26:09;;;;;;;12.98;10.18;;;;;;;22.36;56.85;101320.28;5078161;28;20035;-91
2021/07/14 06:28:35;;;;;;;13.38;9.80;;;;;;;22.37;56.75;101325.50;5061800;28;20043;-89
2021/07/14 06:31:00;;;;;;;11.75;9.88;;;;;;;22.38;56.76;101313.22;5077830;28;20378;-90
2021/07/14 06:33:26;;;;;;;15.05;10.18;;;;;;;22.37;56.69;101317.63;5077590;28;20028;-88
2021/07/14 06:35:53;;;;;;;12.48;9.75;;;;;;;22.42;56.91;101316.66;5094910;28;20048;-88
2021/07/14 06:38:19;;;;;;;11.07;9.32;;;;;;;22.42;56.71;101314.91;5081500;28;20492;-89
2021/07/14 06:40:44;;;;;;;10.43;9.00;;;;;;;22.43;56.85;101313.13;5077823;28;20539;-89
2021/07/14 06:43:15;;;;;;;10.50;9.05;;;;;;;22.44;56.58;101314.88;5077497;28;20031;-89
2021/07/14 06:45:41;;;;;;;10.65;9.40;;;;;;;22.44;56.54;101314.88;5094263;28;20082;-89
2021/07/14 06:48:07;;;;;;;14.13;9.85;;;;;;;22.45;56.69;101325.34;5077419;28;20028;-90
2021/07/14 06:50:33;;;;;;;12.10;9.00;;;;;;;22.47;56.52;101328.78;5061134;28;20531;-89
2021/07/14 06:53:01;;;;;;;12.13;9.43;;;;;;;22.47;56.85;101328.78;5094225;28;20039;-91
2021/07/14 06:55:26;;;;;;;11.65;9.18;;;;;;;22.48;56.73;101338.38;5077491;28;20024;-91
2021/07/14 06:57:52;;;;;;;11.30;9.40;;;;;;;22.49;56.43;101342.69;5077180;28;20061;-89
2021/07/14 07:00:17;;;;;;;10.68;9.57;;;;;;;22.50;56.38;101344.44;5077096;28;20028;-90
2021/07/14 07:02:44;;;;;;;11.77;9.43;;;;;;;22.51;56.57;101346.16;5093961;28;20160;-90
2021/07/14 07:05:10;;;;;;;10.77;9.68;;;;;;;22.51;56.72;101356.66;5077335;28;20039;-90
2021/07/14 07:07:35;;;;;;;10.52;9.20;;;;;;;22.51;56.72;101353.16;5077292;28;20031;-91
2021/07/14 07:10:01;;;;;;;11.63;9.40;;;;;;;22.50;56.58;101354.09;5093917;28;20036;-91
2021/07/14 07:12:29;;;;;;;10.18;9.07;;;;;;;22.49;56.29;101360.22;5093911;28;20039;-90
2021/07/14 07:14:55;;;;;;;11.30;9.45;;;;;;;22.50;56.64;101351.47;5077270;28;20028;-90
2021/07/14 07:17:20;;;;;;;10.23;8.85;;;;;;;22.49;56.75;101353.19;5076795;28;20024;-90
2021/07/14 07:19:45;;;;;;;10.10;8.90;;;;;;;22.47;56.72;101349.78;5093749;28;20507;-90
2021/07/14 07:22:11;;;;;;;10.63;9.02;;;;;;;22.48;56.76;101359.34;5060026;28;20545;-91
2021/07/14 07:24:36;;;;;;;12.68;9.75;;;;;;;22.51;56.76;101355.78;5076432;28;20043;-89
2021/07/14 07:27:04;;;;;;;12.65;9.15;;;;;;;22.49;56.63;101353.19;5093452;28;20020;-90
2021/07/14 07:29:30;;;;;;;10.70;9.15;;;;;;;22.49;56.67;101344.47;5077011;28;20036;-90
2021/07/14 07:31:55;;;;;;;10.45;8.98;;;;;;;22.49;56.45;101347.09;5093719;28;20024;-89
2021/07/14 07:34:22;;;;;;;10.35;8.80;;;;;;;22.49;56.51;101342.69;5093286;28;20026;-90
2021/07/14 07:36:48;;;;;;;10.25;9.13;;;;;;;22.47;56.50;101335.78;5076483;28;20031;-89
2021/07/14 07:39:14;;;;;;;10.68;9.10;;;;;;;22.48;56.74;101334.88;5076476;28;20023;-88
2021/07/14 07:41:40;;;;;;;11.15;8.63;;;;;;;22.50;56.58;101338.34;5094542;28;20032;-88
2021/07/14 07:44:06;;;;;;;10.30;9.30;;;;;;;22.50;56.79;101335.72;5093255;28;20020;-89
2021/07/14 07:46:32;;;;;;;12.05;9.40;;;;;;;22.50;56.50;101331.34;5092680;28;20081;-90
2021/07/14 07:48:57;;;;;;;10.60;9.02;;;;;;;22.51;56.41;101325.16;5095720;28;20032;-89
2021/07/14 07:51:23;;;;;;;11.30;9.40;;;;;;;22.51;56.35;101332.19;5079935;28;20115;-90
2021/07/14 07:53:48;;;;;;;9.57;8.57;;;;;;;22.51;56.26;101333.03;5071880;28;20024;-84
2021/07/14 07:56:14;;;;;;;11.05;8.70;;;;;;;22.51;56.48;101333.03;5072227;28;20044;-87
2021/07/14 07:58:47;;;;;;;10.05;8.80;;;;;;;22.51;56.30;101334.81;5093909;28;20450;-90
2021/07/14 08:01:12;;;;;;;11.40;8.88;;;;;;;22.50;56.70;101328.72;5093657;28;20028;-88
2021/07/14 08:03:48;;;;;;;9.48;8.45;;;;;;;22.51;56.32;101332.19;5060063;28;20078;-91
2021/07/14 08:06:14;;;;;;;9.80;8.40;;;;;;;22.49;56.34;101326.97;5075666;28;20442;-90
2021/07/14 08:08:42;;;;;;;11.80;8.68;;;;;;;22.50;56.28;101330.47;5093247;28;20123;-91
2021/07/14 08:11:10;;;;;;;9.77;7.88;;;;;;;22.50;56.59;101330.47;5093203;28;20069;-90
2021/07/14 08:13:38;;;;;;;10.38;8.65;;;;;;;22.49;56.59;101342.69;5093113;28;20059;-89
2021/07/14 08:16:04;;;;;;;9.65;8.20;;;;;;;22.51;56.65;101345.31;5093021;28;20063;-90
2021/07/14 08:18:29;;;;;;;10.05;8.57;;;;;;;22.50;56.49;101339.19;5059420;28;20028;-92
2021/07/14 08:20:56;;;;;;;10.07;8.43;;;;;;;22.50;56.55;101349.69;5092796;28;20090;-90
2021/07/14 08:23:25;;;;;;;9.77;8.20;;;;;;;22.50;56.35;101344.44;5076192;28;20032;-91
2021/07/14 08:25:51;;;;;;;9.07;8.10;;;;;;;22.50;56.45;101347.06;5076674;28;20485;-89
2021/07/14 08:28:20;;;;;;;11.00;8.00;;;;;;;22.50;56.35;101346.22;5058558;28;20494;-90
2021/07/14 08:30:48;;;;;;;8.88;7.97;;;;;;;22.52;56.35;101347.03;5092650;28;20484;-91
2021/07/14 08:33:16;;;;;;;10.00;8.18;;;;;;;22.52;56.41;101349.66;5075580;28;20039;-90
2021/07/14 08:35:41;;;;;;;10.52;8.13;;;;;;;22.52;56.29;101350.53;5093256;28;20020;-92
2021/07/14 08:38:08;;;;;;;9.63;7.82;;;;;;;22.54;56.50;101353.13;5092993;28;20074;-91
2021/07/14 08:40:34;;;;;;;9.18;7.43;;;;;;;22.55;56.31;101346.97;5059778;28;20032;-91
2021/07/14 08:43:01;;;;;;;9.40;7.68;;;;;;;22.57;55.98;101345.16;5092933;28;20020;-92
2021/07/14 08:45:29;;;;;;;9.55;8.10;;;;;;;22.56;56.26;101349.56;5093262;28;20055;-91
2021/07/14 08:47:55;;;;;;;9.10;7.70;;;;;;;22.56;56.34;101351.31;5093134;28;20024;-90
2021/07/14 08:50:21;;;;;;;10.77;7.78;;;;;;;22.55;56.19;101355.69;5076682;28;20031;-91
2021/07/14 08:52:48;;;;;;;8.45;7.57;;;;;;;22.57;56.38;101358.28;5077820;28;20023;-90
2021/07/14 08:55:17;;;;;;;10.43;7.50;;;;;;;22.55;56.18;101355.69;5062174;28;20028;-93
2021/07/14 08:57:44;;;;;;;9.77;7.88;;;;;;;22.60;56.43;101352.97;5097125;28;20085;-93
2021/07/14 09:00:22;;;;;;;11.57;8.43;;;;;;;22.59;56.11;101353.88;5097241;28;20021;-90
2021/07/14 09:02:48;;;;;;;10.50;8.35;;;;;;;22.70;56.04;101356.25;5096578;28;20020;-90
2021/07/14 09:05:14;;;;;;;10.75;8.70;;;;;;;22.72;55.79;101352.69;5079922;28;20493;-91
2021/07/14 09:07:40;;;;;;;12.80;9.02;;;;;;;22.70;55.96;101356.25;5079981;28;20363;-90
2021/07/14 09:10:09;;;;;;;11.82;8.32;;;;;;;22.62;56.25;101356.41;5080222;28;20050;-90
2021/07/14 09:12:37;;;;;;;14.38;9.60;;;;;;;22.59;56.30;101343.38;5102229;28;20028;-87
2021/07/14 09:15:09;;;;;;;13.65;9.30;;;;;;;22.57;56.29;101345.16;5104388;28;20063;-89
2021/07/14 09:17:43;;;;;;;15.20;9.65;;;;;;;22.62;55.83;101348.53;5105534;28;20024;-88
2021/07/14 09:20:40;;;;;;;13.68;9.18;;;;;;;22.68;55.97;101337.06;5102457;28;20036;-89
2021/07/14 09:23:12;;;;;;;13.20;8.70;;;;;;;22.67;55.69;101330.06;5096972;28;20032;-89
2021/07/14 09:25:42;;;;;;;14.32;9.07;;;;;;;22.73;55.79;101340.44;5099278;28;20398;-89
2021/07/14 09:28:09;;;;;;;13.20;8.70;;;;;;;22.83;55.43;101330.59;5097343;28;20484;-89
2021/07/14 09:30:36;;;;;;;16.17;8.70;;;;;;;23.05;54.89;101323.09;5096256;28;20031;-89
2021/07/14 09:33:14;;;;;;;15.40;9.20;;;;;;;23.07;54.89;101321.28;5078653;28;20036;-89
2021/07/14 09:35:45;;;;;;;10.73;7.60;;;;;;;22.97;55.08;101328.47;5095977;28;20081;-90
2021/07/14 09:38:12;;;;;;;11.65;7.85;;;;;;;23.04;54.82;101316.09;5096057;28;20031;-89
2021/07/14 09:40:40;;;;;;;11.27;8.75;;;;;;;22.95;55.03;101322.41;5095799;28;20036;-89
2021/07/14 09:43:23;;;;;;;12.73;8.57;;;;;;;23.06;54.66;101304.69;5095734;28;20027;-90
2021/07/14 09:45:56;;;;;;;11.55;8.88;;;;;;;23.04;55.04;101311.75;5095371;28;20110;-89
2021/07/14 09:48:31;;;;;;;11.93;8.35;;;;;;;22.96;55.14;101313.66;5095860;28;20032;-90
2021/07/14 09:51:12;;;;;;;11.35;7.97;;;;;;;22.88;55.17;101320.84;5079097;28;20031;-89
2021/07/14 09:53:48;;;;;;;13.10;8.82;;;;;;;22.89;55.46;101328.69;5095705;28;20055;-89
2021/07/14 09:56:25;;;;;;;10.77;8.50;;;;;;;22.91;55.33;101329.50;5095770;28;20098;-90
2021/07/14 09:59:09;;;;;;;12.00;8.60;;;;;;;22.89;55.29;101328.69;5095830;28;20082;-89
2021/07/14 10:01:37;;;;;;;13.35;7.88;;;;;;;22.90;55.45;101329.53;5095174;28;20499;-90
2021/07/14 10:04:03;;;;;;;9.35;7.95;;;;;;;22.96;54.97;101326.78;5095071;28;20055;-90
2021/07/14 10:06:29;;;;;;;10.38;7.32;;;;;;;22.91;55.04;101329.50;5078380;28;20389;-89
2021/07/14 10:09:01;;;;;;;11.45;7.95;;;;;;;22.86;55.40;101334.00;5060920;28;20028;-90
2021/07/14 10:11:28;;;;;;;10.50;7.85;;;;;;;22.82;55.49;101336.72;5095921;28;20024;-89
2021/07/14 10:13:53;;;;;;;10.20;7.90;;;;;;;22.85;55.06;101336.66;5094926;28;20028;-89
2021/07/14 10:16:20;;;;;;;10.98;7.75;;;;;;;22.86;55.41;101344.47;5094790;28;20020;-89
2021/07/14 10:19:04;;;;;;;11.43;8.65;;;;;;;22.85;55.04;101341.91;5094439;28;20541;-89
2021/07/14 10:21:31;;;;;;;10.70;7.78;;;;;;;22.90;54.99;101338.25;5078865;28;20371;-89
2021/07/14 10:23:57;;;;;;;10.18;8.02;;;;;;;22.92;55.36;101352.22;5095723;28;20072;-89
2021/07/14 10:26:22;;;;;;;12.05;7.85;;;;;;;22.91;55.25;101358.38;5096171;28;20102;-89
2021/07/14 10:28:50;;;;;;;10.88;7.40;;;;;;;22.90;54.94;101356.63;5094638;28;20461;-89
2021/07/14 10:31:19;;;;;;;9.90;7.90;;;;;;;22.83;55.60;101347.19;5094493;28;20020;-90
2021/07/14 10:33:46;;;;;;;11.38;7.75;;;;;;;22.85;55.27;101353.28;5094717;28;20028;-88
2021/07/14 10:36:14;;;;;;;9.68;7.82;;;;;;;22.85;55.63;101352.41;5078422;28;20031;-89
2021/07/14 10:38:48;;;;;;;10.38;7.80;;;;;;;22.84;55.33;101354.16;5077900;28;20024;-89
2021/07/14 10:41:14;;;;;;;9.38;7.18;;;;;;;22.84;55.46;101356.78;5094638;28;20051;-89
2021/07/14 10:43:43;;;;;;;11.05;7.78;;;;;;;22.83;55.63;101349.81;5096721;28;20032;-88
2021/07/14 10:46:09;;;;;;;9.70;8.48;;;;;;;22.84;55.58;101356.78;5094904;28;20073;-90
2021/07/14 10:48:34;;;;;;;10.38;8.00;;;;;;;22.82;55.60;101352.47;5077426;28;20028;-89
2021/07/14 10:51:00;;;;;;;9.15;7.68;;;;;;;22.84;55.31;101350.69;5060571;28;20030;-89
2021/07/14 10:53:25;;;;;;;9.32;7.47;;;;;;;22.88;55.19;101347.09;5060913;28;20089;-90
2021/07/14 10:55:54;;;;;;;10.90;7.70;;;;;;;22.85;55.44;101347.16;5094073;28;20102;-88
2021/07/14 10:58:22;;;;;;;12.15;8.02;;;;;;;22.81;55.50;101346.38;5094108;28;20529;-86
2021/07/14 11:00:48;;;;;;;9.55;7.88;;;;;;;22.78;55.69;101342.06;5094094;28;20110;-89
2021/07/14 11:03:38;;;;;;;9.85;8.07;;;;;;;22.73;55.80;101350.91;5094121;28;20070;-89
2021/07/14 11:06:05;;;;;;;9.60;7.60;;;;;;;22.70;55.74;101351.00;5094013;28;20028;-90
2021/07/14 11:08:50;;;;;;;9.20;7.38;;;;;;;22.75;55.85;101352.59;5094328;28;20020;-91
2021/07/14 11:11:23;;;;;;;9.43;7.07;;;;;;;22.78;55.77;101347.31;5096356;28;20027;-92
2021/07/14 11:14:09;;;;;;;;;;;;;;;22.83;55.42;101346.34;5077808;28;20032;-88
2021/07/14 11:16:36;;;;;;;10.00;8.52;;;;;;;22.86;55.51;101346.25;5096425;28;19904;-91
2021/07/14 11:19:07;;;;;;;10.00;7.68;;;;;;;22.86;55.63;101335.75;5097647;28;20028;-86
2021/07/14 11:21:44;;;;;;;9.95;7.70;;;;;;;22.84;55.67;101348.91;5093959;28;20063;-90
2021/07/14 11:24:10;;;;;;;14.02;8.77;;;;;;;22.85;55.63;101348.03;5104074;28;20059;-86
2021/07/14 11:26:35;;;;;;;12.35;9.95;;;;;;;22.83;55.88;101356.84;5065139;28;20428;-91
2021/07/14 11:29:12;;;;;;;14.23;9.15;;;;;;;22.84;55.88;101354.16;5083485;28;20046;-92
2021/07/14 11:31:41;;;;;;;11.70;9.63;;;;;;;22.85;55.96;101350.66;5100075;28;20546;-91